Baird, Texas
Current Conditions -  °F | °C
As of 12:52 PM on Saturday 20 Dec 2014 (Local Time) from KABI Reporting Station
Overcast Overcast  
Wind Chill:   Ceiling: 1900
Heat Index:   Visibility: 10mi
Dew Point:   Wind: 7mph
Humidity: 71%   Direction: 200°SSW
Pressure: 30.18"   Gusts: NA
Location:  32.39°N, 99.39°W
Report Text: KABI 201852Z 20006KT 10SM OVC019 09/04 A3018 RMK AO2 SLP218 T00890039
Loading
Personal Weather Stations






























Interactive Weather Map New forecast layout! Learn more

10-Day Weather Forecast

Advertisements
Track Severe Weather on mobile